createdAt,value
2017-06-12T00:00:51.048Z,83.3
2017-06-12T00:01:58.532Z,83.6
2017-06-12T00:03:06.020Z,83.4
2017-06-12T00:04:13.806Z,83.4
2017-06-12T00:05:21.292Z,84.1
2017-06-12T00:06:28.776Z,83.4
2017-06-12T00:07:36.269Z,83.4
2017-06-12T00:08:43.755Z,82.8
2017-06-12T00:09:50.885Z,82.4
2017-06-12T00:10:58.382Z,82.6
2017-06-12T00:12:05.868Z,84.1
2017-06-12T00:13:13.353Z,83.8
2017-06-12T00:14:20.512Z,84.3
2017-06-12T00:15:28.297Z,82.4
2017-06-12T00:16:35.791Z,83.5
2017-06-12T00:17:43.280Z,84.4
2017-06-12T00:18:50.770Z,84.4
2017-06-12T00:19:57.925Z,84
2017-06-12T00:21:05.714Z,82.7
2017-06-12T00:22:13.206Z,85.2
2017-06-12T00:23:20.695Z,84.6
2017-06-12T00:24:28.180Z,83.3
2017-06-12T00:25:35.675Z,84.4
2017-06-12T00:26:43.459Z,85.6
2017-06-12T00:27:50.952Z,85.1
2017-06-12T00:28:58.449Z,85.6
2017-06-12T00:30:05.939Z,86
2017-06-12T00:31:13.424Z,85.7
2017-06-12T00:32:21.214Z,84.5
2017-06-12T00:33:28.705Z,85
2017-06-12T00:34:36.190Z,85
2017-06-12T00:35:43.678Z,85
2017-06-12T00:36:50.841Z,85.2
2017-06-12T00:37:58.634Z,85.4
2017-06-12T00:39:05.786Z,85.3
2017-06-12T00:40:12.944Z,85
2017-06-12T00:41:20.438Z,85.5
2017-06-12T00:42:27.923Z,85.7
2017-06-12T00:43:35.711Z,85.3
2017-06-12T00:44:43.198Z,85.4
2017-06-12T00:45:50.690Z,86.1
2017-06-12T00:46:58.188Z,86.5
2017-06-12T00:48:05.696Z,85.8
2017-06-12T00:49:13.483Z,86
2017-06-12T00:50:20.982Z,86.3
2017-06-12T00:51:28.471Z,86.8
2017-06-12T00:52:35.632Z,85.9
2017-06-12T00:53:43.124Z,85.5
2017-06-12T00:54:50.914Z,86.7
2017-06-12T00:55:58.398Z,85.9
2017-06-12T00:57:05.887Z,86.9
2017-06-12T00:58:13.379Z,85
2017-06-12T00:59:20.871Z,85.4
2017-06-12T01:00:28.654Z,84.4
2017-06-12T01:01:36.140Z,84.9
2017-06-12T01:02:43.301Z,86.3
2017-06-12T01:03:50.784Z,85.1
2017-06-12T01:04:58.271Z,86.6
2017-06-12T01:06:06.063Z,84.8
2017-06-12T01:07:13.557Z,85.6
2017-06-12T01:08:21.050Z,85.9
2017-06-12T01:09:28.536Z,86.6
2017-06-12T01:10:36.024Z,86.1
2017-06-12T01:11:43.817Z,87.5
2017-06-12T01:12:51.301Z,87.4
2017-06-12T01:13:58.787Z,85.5
2017-06-12T01:15:06.288Z,85.8
2017-06-12T01:16:13.774Z,84
2017-06-12T01:17:21.563Z,87
2017-06-12T01:18:29.059Z,85.3
2017-06-12T01:19:36.214Z,86.8
2017-06-12T01:20:43.705Z,87.4
2017-06-12T01:21:51.195Z,85.7
2017-06-12T01:22:58.980Z,86.5
2017-06-12T01:24:06.473Z,86.1
2017-06-12T01:25:13.976Z,86.5
2017-06-12T01:26:21.464Z,85.9
2017-06-12T01:27:28.625Z,86.4
2017-06-12T01:28:36.423Z,86.6
2017-06-12T01:29:43.911Z,86
2017-06-12T01:30:51.393Z,85.4
2017-06-12T01:31:58.883Z,86
2017-06-12T01:33:06.035Z,86.9
2017-06-12T01:34:13.816Z,86.2
2017-06-12T01:35:21.307Z,87.7
2017-06-12T01:36:28.796Z,87.7
2017-06-12T01:37:35.954Z,88.3
2017-06-12T01:38:43.436Z,85.9
2017-06-12T01:39:51.221Z,85.5
2017-06-12T01:40:58.714Z,87
2017-06-12T01:42:06.198Z,87.9
2017-06-12T01:43:13.682Z,86.8
2017-06-12T01:44:21.165Z,87.6
2017-06-12T01:45:28.949Z,86.4
2017-06-12T01:46:36.434Z,87.7
2017-06-12T01:47:43.927Z,87.9
2017-06-12T01:48:51.418Z,87.7
2017-06-12T01:49:58.916Z,87
2017-06-12T01:51:06.701Z,87.3
2017-06-12T01:52:14.186Z,86
2017-06-12T01:53:21.676Z,85.8
2017-06-12T01:54:29.161Z,85.5
2017-06-12T01:55:36.648Z,85.4
2017-06-12T01:56:44.428Z,87.8
2017-06-12T01:57:51.585Z,88
2017-06-12T01:58:58.760Z,89.4
2017-06-12T02:00:06.258Z,90
2017-06-12T02:01:13.744Z,89.2
2017-06-12T02:02:21.537Z,89.8
2017-06-12T02:03:29.023Z,89.7
2017-06-12T02:04:36.511Z,88.9
2017-06-12T02:05:43.994Z,89.8
2017-06-12T02:06:51.480Z,89.3
2017-06-12T02:07:59.272Z,89.6
2017-06-12T02:09:06.418Z,86.8
2017-06-12T02:10:13.908Z,89.4
2017-06-12T02:11:21.395Z,88.6
2017-06-12T02:12:28.550Z,88.6
2017-06-12T02:13:36.332Z,89.8
2017-06-12T02:14:43.815Z,88
2017-06-12T02:15:51.298Z,90.1
2017-06-12T02:16:58.791Z,89.1
2017-06-12T02:18:06.282Z,88.8
2017-06-12T02:19:14.296Z,88.6
2017-06-12T02:20:21.450Z,90
2017-06-12T02:21:28.609Z,90
2017-06-12T02:22:36.091Z,89.3
2017-06-12T02:23:43.579Z,89.8
2017-06-12T02:24:51.364Z,89.6
2017-06-12T02:25:58.851Z,87.9
2017-06-12T02:27:06.338Z,88.6
2017-06-12T02:28:13.827Z,89.2
2017-06-12T02:29:21.318Z,89.3
2017-06-12T02:30:29.103Z,90
2017-06-12T02:31:36.585Z,88.8
2017-06-12T02:32:44.070Z,90
2017-06-12T02:33:51.553Z,90.2
2017-06-12T02:34:59.037Z,90.5
2017-06-12T02:36:06.501Z,90.1
2017-06-12T02:37:13.654Z,89.5
2017-06-12T02:38:21.139Z,88.8
2017-06-12T02:39:28.634Z,87.7
2017-06-12T02:40:36.121Z,88.3
2017-06-12T02:41:43.429Z,88
2017-06-12T02:42:50.926Z,89.8
2017-06-12T02:43:58.410Z,87.7
2017-06-12T02:45:05.893Z,88.4
2017-06-12T02:46:13.384Z,88
2017-06-12T02:47:20.688Z,88.3
2017-06-12T02:48:28.175Z,89.4
2017-06-12T02:49:35.666Z,89.8
2017-06-12T02:50:43.151Z,86.2
2017-06-12T02:51:50.638Z,90
2017-06-12T02:52:57.945Z,86.4
2017-06-12T02:54:05.122Z,87.2
2017-06-12T02:55:12.604Z,90.1
2017-06-12T02:56:19.755Z,89.6
2017-06-12T02:57:27.239Z,89.6
2017-06-12T02:58:34.907Z,90.4
2017-06-12T02:59:42.062Z,90.1
2017-06-12T03:00:49.551Z,90
2017-06-12T03:01:57.036Z,90.2
2017-06-12T03:03:04.520Z,90.3
2017-06-12T03:04:12.155Z,90.1
2017-06-12T03:05:19.647Z,90
2017-06-12T03:06:27.135Z,89.9
2017-06-12T03:07:34.297Z,90.1
2017-06-12T03:08:41.784Z,89.5
2017-06-12T03:09:49.423Z,90.3
2017-06-12T03:10:56.912Z,90.1
2017-06-12T03:12:04.399Z,90
2017-06-12T03:13:11.885Z,89
2017-06-12T03:14:19.371Z,89.6
2017-06-12T03:15:27.004Z,90
2017-06-12T03:16:34.487Z,90.4
2017-06-12T03:17:41.972Z,90.3
2017-06-12T03:18:49.455Z,90.1
2017-06-12T03:19:56.959Z,90.1
2017-06-12T03:21:04.605Z,90.1
2017-06-12T03:22:12.096Z,90.3
2017-06-12T03:23:19.580Z,90.4
2017-06-12T03:24:27.067Z,90.3
2017-06-12T03:25:34.572Z,90.6
2017-06-12T03:26:41.878Z,90.6
2017-06-12T03:27:49.369Z,90.5
2017-06-12T03:28:56.863Z,90.5
2017-06-12T03:30:04.344Z,90.1
2017-06-12T03:31:11.516Z,90.1
2017-06-12T03:32:19.152Z,88.8
2017-06-12T03:33:26.643Z,90.4
2017-06-12T03:34:34.129Z,89.9
2017-06-12T03:35:41.284Z,90.1
2017-06-12T03:36:48.441Z,90.3
2017-06-12T03:37:56.074Z,90.1
2017-06-12T03:39:03.232Z,90.1
2017-06-12T03:40:10.740Z,90.3
2017-06-12T03:41:18.231Z,90.4
2017-06-12T03:42:25.720Z,90.3
2017-06-12T03:43:33.358Z,90.4
2017-06-12T03:44:40.849Z,88.3
2017-06-12T03:45:48.331Z,87.9
2017-06-12T03:46:55.824Z,89.4
2017-06-12T03:48:02.979Z,89.6
2017-06-12T03:49:10.766Z,89.3
2017-06-12T03:50:18.252Z,90
2017-06-12T03:51:25.741Z,90.1
2017-06-12T03:52:33.228Z,90.3
2017-06-12T03:53:40.712Z,90.3
2017-06-12T03:54:48.024Z,90.1
2017-06-12T03:55:55.517Z,90.3
2017-06-12T03:57:03.014Z,90.2
2017-06-12T03:58:10.506Z,90.5
2017-06-12T03:59:17.990Z,90
2017-06-12T04:00:25.638Z,90.2
2017-06-12T04:01:32.802Z,90.2
2017-06-12T04:02:40.289Z,90.2
2017-06-12T04:03:47.778Z,89.1
2017-06-12T04:04:55.258Z,89.2
2017-06-12T04:06:02.899Z,88
2017-06-12T04:07:10.055Z,89.8
2017-06-12T04:08:17.538Z,89.7
2017-06-12T04:09:25.028Z,90
2017-06-12T04:10:32.511Z,90.4
2017-06-12T04:11:40.148Z,90.4
2017-06-12T04:12:47.302Z,90.5
2017-06-12T04:13:54.791Z,90.4
2017-06-12T04:15:02.275Z,90.3
2017-06-12T04:16:09.434Z,89.7
2017-06-12T04:17:16.740Z,90
2017-06-12T04:18:24.229Z,90
2017-06-12T04:19:31.713Z,90
2017-06-12T04:20:39.201Z,89.7
2017-06-12T04:21:46.691Z,90
2017-06-12T04:22:54.331Z,89.4
2017-06-12T04:24:01.823Z,87.2
2017-06-12T04:25:09.328Z,89.9
2017-06-12T04:26:16.812Z,89.7
2017-06-12T04:27:24.302Z,89.4
2017-06-12T04:28:31.938Z,89.3
2017-06-12T04:29:39.424Z,90
2017-06-12T04:30:46.913Z,90
2017-06-12T04:31:54.396Z,88.8
2017-06-12T04:33:01.880Z,89.3
2017-06-12T04:34:09.429Z,89.2
2017-06-12T04:35:16.583Z,88.8
2017-06-12T04:36:24.074Z,88.8
2017-06-12T04:37:31.243Z,89.5
2017-06-12T04:38:38.405Z,88.8
2017-06-12T04:39:46.037Z,88.6
2017-06-12T04:40:53.519Z,88.8
2017-06-12T04:42:00.676Z,88.7
2017-06-12T04:43:08.383Z,88.9
2017-06-12T04:44:15.880Z,89
2017-06-12T04:45:23.524Z,89.3
2017-06-12T04:46:31.006Z,90.1
2017-06-12T04:47:38.491Z,90
2017-06-12T04:48:45.982Z,90.1
2017-06-12T04:49:53.487Z,90.3
2017-06-12T04:51:01.127Z,89.9
2017-06-12T04:52:08.613Z,90
2017-06-12T04:53:16.102Z,90
2017-06-12T04:54:23.598Z,90
2017-06-12T04:55:31.100Z,90
2017-06-12T04:56:38.742Z,90.5
2017-06-12T04:57:46.229Z,89
2017-06-12T04:58:53.713Z,88.3
2017-06-12T05:00:01.201Z,87.9
2017-06-12T05:01:08.359Z,88.5
2017-06-12T05:02:16.012Z,88.2
2017-06-12T05:03:23.500Z,88.7
2017-06-12T05:04:30.993Z,88.4
2017-06-12T05:05:38.143Z,88.2
2017-06-12T05:06:45.632Z,87.9
2017-06-12T05:07:53.267Z,88.2
2017-06-12T05:09:00.749Z,88.4
2017-06-12T05:10:08.238Z,87.5
2017-06-12T05:11:15.721Z,88
2017-06-12T05:12:23.228Z,88.3
2017-06-12T05:13:30.863Z,88.8
2017-06-12T05:14:38.358Z,88.2
2017-06-12T05:15:45.858Z,88.8
2017-06-12T05:16:53.341Z,87.5
2017-06-12T05:18:00.833Z,88.3
2017-06-12T05:19:08.699Z,87.5
2017-06-12T05:20:16.183Z,87.7
2017-06-12T05:21:23.692Z,87.5
2017-06-12T05:22:31.176Z,86.1
2017-06-12T05:23:38.660Z,84.3
2017-06-12T05:24:46.299Z,83.2
2017-06-12T05:25:53.781Z,84.1
2017-06-12T05:27:01.275Z,84.7
2017-06-12T05:28:08.766Z,83.7
2017-06-12T05:29:15.922Z,83.7
2017-06-12T05:30:23.560Z,83.3
2017-06-12T05:31:31.051Z,83.7
2017-06-12T05:32:38.213Z,82.5
2017-06-12T05:33:45.704Z,83.2
2017-06-12T05:34:53.197Z,81.7
2017-06-12T05:36:00.834Z,81.5
2017-06-12T05:37:08.323Z,81.1
2017-06-12T05:38:15.807Z,81.8
2017-06-12T05:39:23.294Z,79.8
2017-06-12T05:40:30.784Z,81.1
2017-06-12T05:41:38.423Z,80.6
2017-06-12T05:42:45.908Z,80.2
2017-06-12T05:43:53.394Z,81.8
2017-06-12T05:45:00.879Z,81
2017-06-12T05:46:08.364Z,80.9
2017-06-12T05:47:16.003Z,81.9
2017-06-12T05:48:23.491Z,80.5
2017-06-12T05:49:30.983Z,80.8
2017-06-12T05:50:38.469Z,80.9
2017-06-12T05:51:45.954Z,80.5
2017-06-12T05:52:53.585Z,80.5
2017-06-12T05:54:01.074Z,79.6
2017-06-12T05:55:08.559Z,80.2
2017-06-12T05:56:15.715Z,79.6
2017-06-12T05:57:23.206Z,79.7
2017-06-12T05:58:32.197Z,79.8
2017-06-12T05:59:39.688Z,80.3
2017-06-12T06:00:47.174Z,80.1
2017-06-12T06:01:54.665Z,80.6
2017-06-12T06:03:02.150Z,79.8
2017-06-12T06:04:09.788Z,80.2
2017-06-12T06:05:17.277Z,80.5
2017-06-12T06:06:24.766Z,80
2017-06-12T06:07:32.250Z,79.4
2017-06-12T06:08:39.408Z,79.4
2017-06-12T06:09:46.719Z,79.7
2017-06-12T06:10:54.208Z,80.5
2017-06-12T06:12:01.691Z,77.1
2017-06-12T06:13:09.181Z,77.9
2017-06-12T06:14:16.668Z,78.1
2017-06-12T06:15:24.305Z,78.2
2017-06-12T06:16:31.805Z,77.7
2017-06-12T06:17:39.293Z,77.7
2017-06-12T06:18:46.780Z,77.4
2017-06-12T06:19:54.263Z,77.5
2017-06-12T06:21:01.904Z,77
2017-06-12T06:22:09.393Z,76.2
2017-06-12T06:23:16.542Z,76.1
2017-06-12T06:24:24.034Z,76.1
2017-06-12T06:25:31.190Z,75
2017-06-12T06:26:38.828Z,74.1
2017-06-12T06:27:46.316Z,75.4
2017-06-12T06:28:53.809Z,75.7
2017-06-12T06:30:01.297Z,75
2017-06-12T06:31:08.458Z,75.7
2017-06-12T06:32:17.471Z,76.3
2017-06-12T06:33:24.976Z,77
2017-06-12T06:34:32.469Z,74.2
2017-06-12T06:35:39.956Z,73
2017-06-12T06:36:47.444Z,71.8
2017-06-12T06:37:54.750Z,74.5
2017-06-12T06:39:02.248Z,71.1
2017-06-12T06:40:09.739Z,72.2
2017-06-12T06:41:17.233Z,71.2
2017-06-12T06:42:24.727Z,71.5
2017-06-12T06:43:32.365Z,71.6
2017-06-12T06:44:39.856Z,69.6
2017-06-12T06:45:47.344Z,71.8
2017-06-12T06:46:54.831Z,70.8
2017-06-12T06:48:01.990Z,71.3
2017-06-12T06:49:09.303Z,70.7
2017-06-12T06:50:16.464Z,69.8
2017-06-12T06:51:23.952Z,70.6
2017-06-12T06:52:31.443Z,71.2
2017-06-12T06:53:38.940Z,72.6
2017-06-12T06:54:46.599Z,70.9
2017-06-12T06:55:54.089Z,68.9
2017-06-12T06:57:01.577Z,69.5
2017-06-12T06:58:08.740Z,69.8
2017-06-12T06:59:16.229Z,69.6
2017-06-12T07:00:23.918Z,71.1
2017-06-12T07:01:31.414Z,72.7
2017-06-12T07:02:38.901Z,70
2017-06-12T07:03:46.392Z,69.5
2017-06-12T07:04:53.888Z,69.5
2017-06-12T07:06:01.588Z,69.4
2017-06-12T07:07:09.088Z,69.4
2017-06-12T07:08:16.576Z,70
2017-06-12T07:09:24.065Z,69
2017-06-12T07:10:31.557Z,70
2017-06-12T07:11:38.529Z,70.6
2017-06-12T07:12:46.023Z,70.8
2017-06-12T07:13:53.524Z,72.2
2017-06-12T07:15:01.013Z,70.4
2017-06-12T07:16:08.498Z,70.8
2017-06-12T07:17:16.139Z,70.3
2017-06-12T07:18:23.654Z,70.8
2017-06-12T07:19:31.142Z,70
2017-06-12T07:20:38.631Z,70.4
2017-06-12T07:21:46.122Z,68.9
2017-06-12T07:22:53.767Z,68.8
2017-06-12T07:24:01.258Z,68.6
2017-06-12T07:25:08.745Z,68.6
2017-06-12T07:26:15.906Z,69.6
2017-06-12T07:27:23.402Z,69.6
2017-06-12T07:28:30.707Z,68.3
2017-06-12T07:29:38.192Z,68.9
2017-06-12T07:30:45.698Z,68.3
2017-06-12T07:31:53.185Z,69.1
2017-06-12T07:33:00.674Z,67.7
2017-06-12T07:34:08.316Z,66.5
2017-06-12T07:35:15.476Z,68.5
2017-06-12T07:36:22.964Z,67.3
2017-06-12T07:37:30.452Z,67.4
2017-06-12T07:38:37.951Z,67.4
2017-06-12T07:39:45.266Z,67.6
2017-06-12T07:40:52.424Z,67.4
2017-06-12T07:41:59.916Z,66.7
2017-06-12T07:43:07.404Z,67.3
2017-06-12T07:44:14.900Z,68.1
2017-06-12T07:45:22.652Z,66
2017-06-12T07:46:30.143Z,66.6
2017-06-12T07:47:37.634Z,66.8
2017-06-12T07:48:44.790Z,66
2017-06-12T07:49:52.285Z,66.1
2017-06-12T07:51:00.029Z,65.5
2017-06-12T07:52:07.526Z,66.9
2017-06-12T07:53:15.033Z,66.4
2017-06-12T07:54:22.517Z,67.8
2017-06-12T07:55:30.019Z,66.8
2017-06-12T07:56:37.433Z,66.8
2017-06-12T07:57:44.602Z,66.4
2017-06-12T07:58:52.093Z,67.1
2017-06-12T07:59:59.581Z,67.1
2017-06-12T08:01:07.070Z,67.4
2017-06-12T08:02:14.813Z,66.5
2017-06-12T08:03:22.300Z,66.8
2017-06-12T08:04:29.794Z,67.1
2017-06-12T08:05:37.283Z,66
2017-06-12T08:06:44.443Z,65.2
2017-06-12T08:07:53.435Z,67
2017-06-12T08:09:00.929Z,66.6
2017-06-12T08:10:08.432Z,65.2
2017-06-12T08:11:16.232Z,65.5
2017-06-12T08:12:23.723Z,64.6
2017-06-12T08:13:31.469Z,64.9
2017-06-12T08:14:38.971Z,65.1
2017-06-12T08:15:46.462Z,67.5
2017-06-12T08:16:53.625Z,64.9
2017-06-12T08:18:01.114Z,64.9
2017-06-12T08:19:08.772Z,63.6
2017-06-12T08:20:16.262Z,63.7
2017-06-12T08:21:23.758Z,64.6
2017-06-12T08:22:30.931Z,65.6
2017-06-12T08:23:38.428Z,64.4
2017-06-12T08:24:46.070Z,64.3
2017-06-12T08:25:53.576Z,65.1
2017-06-12T08:27:01.073Z,63.6
2017-06-12T08:28:07.902Z,62.9
2017-06-12T08:29:15.390Z,63.6
2017-06-12T08:30:23.034Z,63.5
2017-06-12T08:31:30.530Z,64
2017-06-12T08:32:37.693Z,62.9
2017-06-12T08:33:45.205Z,62.4
2017-06-12T08:34:52.371Z,64
2017-06-12T08:36:00.010Z,64
2017-06-12T08:37:07.501Z,63.1
2017-06-12T08:38:14.993Z,63.1
2017-06-12T08:39:22.490Z,63.7
2017-06-12T08:40:29.998Z,62.4
2017-06-12T08:41:37.647Z,62.5
2017-06-12T08:42:45.138Z,64.4
2017-06-12T08:43:52.631Z,63.7
2017-06-12T08:45:00.124Z,63
2017-06-12T08:46:07.617Z,63.2
2017-06-12T08:47:14.934Z,63.2
2017-06-12T08:48:22.437Z,63.9
2017-06-12T08:49:29.935Z,65.4
2017-06-12T08:50:37.092Z,64.2
2017-06-12T08:51:44.588Z,64.6
2017-06-12T08:52:52.231Z,65.7
2017-06-12T08:53:59.734Z,64.7
2017-06-12T08:55:07.225Z,65.1
2017-06-12T08:56:14.717Z,65.2
2017-06-12T08:57:22.219Z,65.7
2017-06-12T08:58:29.865Z,66.3
2017-06-12T08:59:37.366Z,65.9
2017-06-12T09:00:44.530Z,66.1
2017-06-12T09:01:52.018Z,65.9
2017-06-12T09:02:59.511Z,65.2
2017-06-12T09:04:07.148Z,65.5
2017-06-12T09:05:14.318Z,67.1
2017-06-12T09:06:21.809Z,66.2
2017-06-12T09:07:29.298Z,64.5
2017-06-12T09:08:36.794Z,65.2
2017-06-12T09:09:44.440Z,65.9
2017-06-12T09:10:51.929Z,66.4
2017-06-12T09:11:59.437Z,66.5
2017-06-12T09:13:06.933Z,65.3
2017-06-12T09:14:14.428Z,64.3
2017-06-12T09:15:22.072Z,64.1
2017-06-12T09:16:29.561Z,65.6
2017-06-12T09:17:37.056Z,65
2017-06-12T09:18:44.548Z,64.7
2017-06-12T09:19:52.039Z,61.6
2017-06-12T09:20:59.678Z,60.7
2017-06-12T09:22:07.171Z,61.5
2017-06-12T09:23:14.666Z,63.7
2017-06-12T09:24:22.152Z,64
2017-06-12T09:25:29.640Z,63.3
2017-06-12T09:26:37.279Z,62.7
2017-06-12T09:27:44.788Z,62.3
2017-06-12T09:28:52.277Z,64.3
2017-06-12T09:29:59.772Z,63.3
2017-06-12T09:31:06.932Z,62.2
2017-06-12T09:32:14.573Z,62.8
2017-06-12T09:33:22.065Z,62.5
2017-06-12T09:34:29.561Z,62.6
2017-06-12T09:35:37.058Z,64.5
2017-06-12T09:36:44.557Z,65.9
2017-06-12T09:37:52.201Z,63.5
2017-06-12T09:38:59.690Z,63.7
2017-06-12T09:40:07.181Z,62.2
2017-06-12T09:41:14.347Z,61.8
2017-06-12T09:42:21.514Z,63.1
2017-06-12T09:43:29.157Z,62.5
2017-06-12T09:44:36.646Z,64
2017-06-12T09:45:44.135Z,63.3
2017-06-12T09:46:51.623Z,63.4
2017-06-12T09:47:59.116Z,63.5
2017-06-12T09:49:06.752Z,64.7
2017-06-12T09:50:14.278Z,64.5
2017-06-12T09:51:21.773Z,63.5
2017-06-12T09:52:29.266Z,65.5
2017-06-12T09:53:36.426Z,62.7
2017-06-12T09:54:43.893Z,60.2
2017-06-12T09:55:51.380Z,61
2017-06-12T09:56:58.873Z,62.7
2017-06-12T09:58:06.369Z,61.1
2017-06-12T09:59:13.200Z,60.7
2017-06-12T10:00:20.992Z,60.1
2017-06-12T10:01:28.501Z,60
2017-06-12T10:02:35.993Z,60
2017-06-12T10:03:42.823Z,61.2
2017-06-12T10:04:50.320Z,63.4
2017-06-12T10:05:57.810Z,62.3
2017-06-12T10:07:04.964Z,57.8
2017-06-12T10:08:12.461Z,57.3
2017-06-12T10:09:19.628Z,56.7
2017-06-12T10:10:26.792Z,58.7
2017-06-12T10:11:34.596Z,59.6
2017-06-12T10:12:42.096Z,59.4
2017-06-12T10:13:49.591Z,58.5
2017-06-12T10:14:56.759Z,57.2
2017-06-12T10:16:04.254Z,58
2017-06-12T10:17:12.041Z,58
2017-06-12T10:18:19.197Z,59.8
2017-06-12T10:19:26.693Z,59.9
2017-06-12T10:20:34.190Z,57
2017-06-12T10:21:41.681Z,57.7
2017-06-12T10:22:49.483Z,57.2
2017-06-12T10:23:56.980Z,58.1
2017-06-12T10:25:04.478Z,57.8
2017-06-12T10:26:11.640Z,60.7
2017-06-12T10:27:19.132Z,59.7
2017-06-12T10:28:26.628Z,58.6
2017-06-12T10:29:34.123Z,57.3
2017-06-12T10:30:41.619Z,56.3
2017-06-12T10:31:48.791Z,53.3
2017-06-12T10:32:56.281Z,54
2017-06-12T10:34:04.096Z,55.7
2017-06-12T10:35:11.261Z,56
2017-06-12T10:36:18.772Z,57
2017-06-12T10:37:26.277Z,58.5
2017-06-12T10:38:33.774Z,56.3
2017-06-12T10:39:41.567Z,55.8
2017-06-12T10:40:49.060Z,55.4
2017-06-12T10:41:56.548Z,54.7
2017-06-12T10:43:03.720Z,57.3
2017-06-12T10:44:11.208Z,55.4
2017-06-12T10:45:18.369Z,54.5
2017-06-12T10:46:25.865Z,53.8
2017-06-12T10:47:33.362Z,53.8
2017-06-12T10:48:40.855Z,54.8
2017-06-12T10:49:48.349Z,55.2
2017-06-12T10:50:56.147Z,54.2
2017-06-12T10:52:03.641Z,55
2017-06-12T10:53:11.140Z,52.9
2017-06-12T10:54:18.643Z,53.5
2017-06-12T10:55:26.137Z,51.9
2017-06-12T10:56:33.777Z,53.7
2017-06-12T10:57:41.275Z,55.1
2017-06-12T10:58:48.770Z,56.9
2017-06-12T10:59:56.265Z,55.9
2017-06-12T11:01:03.760Z,54.1
2017-06-12T11:02:11.409Z,50.1
2017-06-12T11:03:18.906Z,51
2017-06-12T11:04:26.399Z,51
2017-06-12T11:05:33.911Z,50.5
2017-06-12T11:06:41.098Z,51.2
2017-06-12T11:07:48.741Z,49.8
2017-06-12T11:08:56.233Z,52
2017-06-12T11:10:03.397Z,49
2017-06-12T11:11:10.895Z,48.5
2017-06-12T11:12:18.388Z,50.7
2017-06-12T11:13:25.889Z,51.7
2017-06-12T11:14:33.377Z,49.8
2017-06-12T11:15:40.515Z,48.4
2017-06-12T11:16:48.004Z,48.5
2017-06-12T11:17:55.513Z,48.4
2017-06-12T11:19:03.027Z,50
2017-06-12T11:20:10.188Z,48.1
2017-06-12T11:21:17.983Z,49.6
2017-06-12T11:22:25.492Z,48.5
2017-06-12T11:23:32.984Z,50.3
2017-06-12T11:24:40.472Z,50
2017-06-12T11:25:47.636Z,48.9
2017-06-12T11:26:55.435Z,47.2
2017-06-12T11:28:02.935Z,49.4
2017-06-12T11:29:10.430Z,48.8
2017-06-12T11:30:17.919Z,47.8
2017-06-12T11:31:25.415Z,47.2
2017-06-12T11:32:33.219Z,48.7
2017-06-12T11:33:40.714Z,46.1
2017-06-12T11:34:48.218Z,45.7
2017-06-12T11:35:55.708Z,45.2
2017-06-12T11:37:03.206Z,47.1
2017-06-12T11:38:10.519Z,46.8
2017-06-12T11:39:18.012Z,46.8
2017-06-12T11:40:25.503Z,47.4
2017-06-12T11:41:32.994Z,45.8
2017-06-12T11:42:40.496Z,45.4
2017-06-12T11:43:48.153Z,45.2
2017-06-12T11:44:55.650Z,46.3
2017-06-12T11:46:03.148Z,44.5
2017-06-12T11:47:10.640Z,45.2
2017-06-12T11:48:18.133Z,45
2017-06-12T11:49:25.450Z,43.5
2017-06-12T11:50:32.944Z,44.1
2017-06-12T11:51:40.110Z,45.6
2017-06-12T11:52:47.615Z,43.4
2017-06-12T11:53:55.119Z,44.8
2017-06-12T11:55:02.440Z,42.4
2017-06-12T11:56:09.609Z,41.9
2017-06-12T11:57:16.784Z,41.9
2017-06-12T11:58:24.278Z,43.4
2017-06-12T11:59:31.436Z,44.3
2017-06-12T12:00:39.100Z,44.3
2017-06-12T12:01:46.609Z,42.5
2017-06-12T12:02:54.105Z,41.7
2017-06-12T12:04:01.592Z,42.7
2017-06-12T12:05:09.128Z,40.9
2017-06-12T12:06:16.773Z,40.5
2017-06-12T12:07:24.308Z,42
2017-06-12T12:08:31.803Z,42.4
2017-06-12T12:09:39.307Z,41.7
2017-06-12T12:10:46.797Z,42.5
2017-06-12T12:11:54.446Z,41.4
2017-06-12T12:13:01.945Z,40.8
2017-06-12T12:14:09.128Z,41.8
2017-06-12T12:15:16.628Z,41.2
2017-06-12T12:20:18.675Z,41.1
2017-06-12T12:21:26.177Z,40.4
2017-06-12T12:22:33.965Z,40.4
2017-06-12T12:23:41.470Z,39.8
2017-06-12T12:24:48.966Z,39.1
2017-06-12T12:25:56.137Z,40.7
2017-06-12T12:27:03.638Z,41.3
2017-06-12T12:28:11.442Z,40.9
2017-06-12T12:29:18.937Z,38.6
2017-06-12T12:30:26.435Z,39.2
2017-06-12T12:31:33.929Z,40.2
2017-06-12T12:32:41.428Z,40
2017-06-12T12:33:49.227Z,38.1
2017-06-12T12:34:56.720Z,38.6
2017-06-12T12:36:04.232Z,37.4
2017-06-12T12:37:11.740Z,40
2017-06-12T12:38:19.235Z,39.5
2017-06-12T12:39:26.883Z,36.1
2017-06-12T12:40:34.376Z,37.1
2017-06-12T12:41:41.865Z,39.2
2017-06-12T12:42:49.361Z,40.2
2017-06-12T12:43:56.531Z,38.7
2017-06-12T12:45:04.335Z,39
2017-06-12T12:46:11.835Z,36.7
2017-06-12T12:47:19.327Z,37.2
2017-06-12T12:48:26.840Z,39.4
2017-06-12T12:49:34.335Z,36
2017-06-12T12:50:41.812Z,36
2017-06-12T12:51:49.305Z,36
2017-06-12T12:52:56.792Z,35.4
2017-06-12T12:54:03.965Z,35.9
2017-06-12T12:55:11.451Z,36.4
2017-06-12T12:56:19.351Z,36.2
2017-06-12T12:57:26.857Z,36.5
2017-06-12T12:58:34.354Z,38.2
2017-06-12T12:59:41.533Z,38.3
2017-06-12T13:00:48.685Z,36.1
2017-06-12T13:01:56.343Z,34.6
2017-06-12T13:03:03.841Z,37.6
2017-06-12T13:04:11.342Z,35.9
2017-06-12T13:05:18.835Z,36.9
2017-06-12T13:06:26.332Z,34.3
2017-06-12T13:07:33.826Z,36.6
2017-06-12T13:08:40.666Z,36.1
2017-06-12T13:09:48.157Z,35.8
2017-06-12T13:10:55.649Z,34.2
2017-06-12T13:12:03.145Z,36.2
2017-06-12T13:13:10.644Z,35.1
2017-06-12T13:14:18.149Z,37.8
2017-06-12T13:15:25.795Z,35.6
2017-06-12T13:16:33.285Z,34.4
2017-06-12T13:17:40.775Z,34
2017-06-12T13:18:48.269Z,35.9
2017-06-12T13:19:55.759Z,36.9
2017-06-12T13:21:03.406Z,36.2
2017-06-12T13:22:10.896Z,36.9
2017-06-12T13:23:18.392Z,36.3
2017-06-12T13:24:25.883Z,37.2
2017-06-12T13:25:33.384Z,38.6
2017-06-12T13:26:40.547Z,38
2017-06-12T13:27:48.037Z,38.7
2017-06-12T13:28:55.833Z,39.3
2017-06-12T13:30:03.335Z,36.9
2017-06-12T13:31:10.840Z,35.4
2017-06-12T13:32:18.333Z,36.6
2017-06-12T13:33:25.501Z,37.7
2017-06-12T13:34:32.817Z,36.7
2017-06-12T13:35:40.308Z,36.4
2017-06-12T13:36:47.804Z,37
2017-06-12T13:37:55.526Z,37.7
2017-06-12T13:39:03.023Z,37.8
2017-06-12T13:40:10.347Z,37.1
2017-06-12T13:41:17.836Z,36.9
2017-06-12T13:42:25.004Z,36.7
2017-06-12T13:43:32.170Z,36.7
2017-06-12T13:44:39.335Z,36.6
2017-06-12T13:45:46.489Z,36.7
2017-06-12T13:46:54.215Z,38.5
2017-06-12T13:48:01.750Z,37.1
2017-06-12T13:49:09.390Z,35.8
2017-06-12T13:50:16.886Z,37
2017-06-12T13:51:24.052Z,36.5
2017-06-12T13:52:31.542Z,37.9
2017-06-12T13:53:39.038Z,37.3
2017-06-12T13:54:46.681Z,37.6
2017-06-12T13:55:54.188Z,36.4
2017-06-12T13:57:01.682Z,36.6
2017-06-12T13:58:09.173Z,36.9
2017-06-12T13:59:16.670Z,36.7
2017-06-12T14:00:24.315Z,37.9
2017-06-12T14:01:31.811Z,37.2
2017-06-12T14:02:39.301Z,38.6
2017-06-12T14:03:46.792Z,37.6
2017-06-12T14:04:53.955Z,37.9
2017-06-12T14:06:01.611Z,36.7
2017-06-12T14:07:08.773Z,38.1
2017-06-12T14:08:16.268Z,36.8
2017-06-12T14:09:23.757Z,38.2
2017-06-12T14:10:30.917Z,38.5
2017-06-12T14:11:38.563Z,37.4
2017-06-12T14:12:46.057Z,36.9
2017-06-12T14:13:53.236Z,38.2
2017-06-12T14:15:00.734Z,36.4
2017-06-12T14:16:08.232Z,37.7
2017-06-12T14:17:15.888Z,38.5
2017-06-12T14:18:23.052Z,41
2017-06-12T14:19:30.541Z,40.2
2017-06-12T14:20:38.035Z,36.8
2017-06-12T14:21:45.532Z,38.7
2017-06-12T14:22:52.874Z,37
2017-06-12T14:24:00.374Z,37.6
2017-06-12T14:25:07.873Z,36.2
2017-06-12T14:26:15.369Z,34.6
2017-06-12T14:27:22.863Z,33.9
2017-06-12T14:28:30.356Z,35.2
2017-06-12T14:29:37.850Z,35.2
2017-06-12T14:30:45.359Z,36
2017-06-12T14:31:52.851Z,35.4
2017-06-12T14:33:00.639Z,36
2017-06-12T14:34:08.132Z,34.5
2017-06-12T14:35:15.626Z,36.4
2017-06-12T14:36:23.121Z,36.1
2017-06-12T14:37:30.616Z,36
2017-06-12T14:38:38.413Z,35.8
2017-06-12T14:39:45.909Z,36
2017-06-12T14:40:53.079Z,37
2017-06-12T14:42:00.576Z,35.6
2017-06-12T14:43:08.063Z,37.4
2017-06-12T14:44:15.855Z,36.5
2017-06-12T14:45:23.354Z,35.6
2017-06-12T14:46:30.847Z,37.1
2017-06-12T14:47:38.335Z,35.8
2017-06-12T14:48:45.828Z,36.3
2017-06-12T14:49:53.325Z,36.8
2017-06-12T14:51:00.821Z,36.2
2017-06-12T14:52:08.313Z,35.8
2017-06-12T14:53:15.807Z,36.8
2017-06-12T14:54:23.306Z,37
2017-06-12T14:55:31.116Z,36
2017-06-12T14:56:38.599Z,37.3
2017-06-12T14:57:46.093Z,38
2017-06-12T14:58:53.588Z,37.8
2017-06-12T15:00:00.755Z,37.8
2017-06-12T15:01:08.224Z,37.2
2017-06-12T15:02:15.722Z,37.2
2017-06-12T15:03:23.218Z,39.5
2017-06-12T15:04:30.736Z,37.4
2017-06-12T15:05:38.232Z,37.7
2017-06-12T15:06:46.029Z,38.5
2017-06-12T15:07:53.198Z,37.4
2017-06-12T15:09:00.691Z,37.6
2017-06-12T15:10:08.191Z,38.3